createdAt,value
2023-04-16T00:01:40.998Z,6.50
2023-04-16T00:04:09.125Z,5.50
2023-04-16T00:06:37.137Z,6.00
2023-04-16T00:09:05.059Z,5.70
2023-04-16T00:11:32.964Z,8.60
2023-04-16T00:14:00.950Z,5.20
2023-04-16T00:16:29.119Z,7.40
2023-04-16T00:18:57.152Z,7.00
2023-04-16T00:21:26.529Z,5.60
2023-04-16T00:23:54.573Z,6.20
2023-04-16T00:26:22.512Z,5.60
2023-04-16T00:28:50.795Z,5.70
2023-04-16T00:31:18.799Z,5.90
2023-04-16T00:33:46.981Z,6.10
2023-04-16T00:36:14.874Z,6.30
2023-04-16T00:38:42.826Z,6.90
2023-04-16T00:41:10.766Z,7.40
2023-04-16T00:43:38.715Z,7.50
2023-04-16T00:46:07.288Z,7.10
2023-04-16T00:48:41.179Z,6.10
2023-04-16T00:51:09.976Z,6.40
2023-04-16T00:53:38.305Z,7.50
2023-04-16T00:56:07.526Z,8.20
2023-04-16T00:58:35.856Z,6.90
2023-04-16T01:01:04.050Z,6.50
2023-04-16T01:03:44.700Z,7.90
2023-04-16T01:06:13.293Z,7.50
2023-04-16T01:08:41.311Z,7.40
2023-04-16T01:11:11.361Z,8.10
2023-04-16T01:13:39.807Z,9.70
2023-04-16T01:16:09.750Z,7.80
2023-04-16T01:18:38.349Z,8.90
2023-04-16T01:21:06.927Z,11.10
2023-04-16T01:23:34.923Z,8.80
2023-04-16T01:26:03.733Z,9.30
2023-04-16T01:28:31.748Z,9.30
2023-04-16T01:30:59.774Z,9.00
2023-04-16T01:33:43.797Z,10.00
2023-04-16T01:36:12.818Z,10.80
2023-04-16T01:38:40.853Z,9.70
2023-04-16T01:41:08.840Z,9.20
2023-04-16T01:43:38.480Z,8.90
2023-04-16T01:46:29.460Z,10.50
2023-04-16T01:48:58.534Z,10.90
2023-04-16T01:51:27.491Z,10.80
2023-04-16T01:53:56.022Z,10.80
2023-04-16T01:56:24.117Z,9.90
2023-04-16T01:58:53.215Z,10.10
2023-04-16T02:01:21.253Z,10.80
2023-04-16T02:03:49.922Z,9.70
2023-04-16T02:06:18.008Z,9.40
2023-04-16T02:08:48.042Z,12.70
2023-04-16T02:11:16.093Z,10.20
2023-04-16T02:13:44.550Z,8.40
2023-04-16T02:16:12.898Z,10.70
2023-04-16T02:18:56.300Z,8.80
2023-04-16T02:21:24.633Z,9.50
2023-04-16T02:23:52.600Z,8.40
2023-04-16T02:26:24.836Z,9.10
2023-04-16T02:28:52.754Z,9.20
2023-04-16T02:31:23.555Z,9.30
2023-04-16T02:33:52.079Z,8.50
2023-04-16T02:36:20.359Z,10.40
2023-04-16T02:38:48.589Z,7.90
2023-04-16T02:41:16.495Z,8.50
2023-04-16T02:43:44.432Z,9.70
2023-04-16T02:46:12.450Z,8.50
2023-04-16T02:48:40.640Z,12.40
2023-04-16T02:51:08.612Z,9.00
2023-04-16T02:53:36.806Z,7.70
2023-04-16T02:56:04.996Z,7.90
2023-04-16T02:58:32.935Z,7.50
2023-04-16T03:01:00.975Z,8.60
2023-04-16T03:03:29.050Z,8.60
2023-04-16T03:05:57.046Z,7.40
2023-04-16T03:08:25.191Z,8.20
2023-04-16T03:10:53.102Z,7.90
2023-04-16T03:13:21.096Z,8.60
2023-04-16T03:15:50.074Z,9.70
2023-04-16T03:18:18.201Z,9.40
2023-04-16T03:20:46.197Z,9.00
2023-04-16T03:23:14.210Z,8.20
2023-04-16T03:25:43.675Z,7.70
2023-04-16T03:28:11.606Z,8.10
2023-04-16T03:30:39.669Z,7.80
2023-04-16T03:33:07.798Z,8.60
2023-04-16T03:35:35.853Z,9.10
2023-04-16T03:38:03.816Z,9.70
2023-04-16T03:40:31.975Z,10.10
2023-04-16T03:43:00.570Z,10.80
2023-04-16T03:45:28.631Z,9.80
2023-04-16T03:47:56.661Z,9.20
2023-04-16T03:50:26.307Z,8.80
2023-04-16T03:52:54.356Z,8.00
2023-04-16T03:55:22.385Z,9.60
2023-04-16T03:57:50.275Z,9.20
2023-04-16T04:00:18.409Z,9.70
2023-04-16T04:03:01.083Z,8.60
2023-04-16T04:05:29.275Z,8.70
2023-04-16T04:07:57.264Z,9.30
2023-04-16T04:10:25.529Z,10.40
2023-04-16T04:12:54.504Z,14.20
2023-04-16T04:15:22.414Z,14.20
2023-04-16T04:17:50.393Z,13.60
2023-04-16T04:20:18.464Z,13.30
2023-04-16T04:22:47.424Z,12.80
2023-04-16T04:25:16.712Z,13.00
2023-04-16T04:27:44.624Z,13.10
2023-04-16T04:30:12.579Z,13.80
2023-04-16T04:32:40.986Z,15.20
2023-04-16T04:35:09.967Z,13.80
2023-04-16T04:37:37.904Z,13.40
2023-04-16T04:40:13.110Z,14.30
2023-04-16T04:42:41.063Z,14.20
2023-04-16T04:45:10.132Z,15.50
2023-04-16T04:47:38.132Z,9.80
2023-04-16T04:50:06.769Z,10.00
2023-04-16T04:52:35.003Z,9.40
2023-04-16T04:55:03.787Z,9.60
2023-04-16T04:57:31.832Z,8.40
2023-04-16T04:59:59.854Z,8.70
2023-04-16T05:02:28.799Z,8.80
2023-04-16T05:04:56.862Z,11.50
2023-04-16T05:07:25.150Z,7.70
2023-04-16T05:09:53.568Z,12.90
2023-04-16T05:12:21.502Z,13.50
2023-04-16T05:14:49.604Z,12.70
2023-04-16T05:17:17.625Z,12.80
2023-04-16T05:19:45.596Z,12.90
2023-04-16T05:22:13.459Z,13.40
2023-04-16T05:24:41.529Z,11.40
2023-04-16T05:27:09.717Z,13.20
2023-04-16T05:29:37.725Z,11.30
2023-04-16T05:32:05.824Z,12.10
2023-04-16T05:34:33.776Z,10.10
2023-04-16T05:37:01.796Z,11.00
2023-04-16T05:39:29.793Z,12.50
2023-04-16T05:41:57.770Z,12.80
2023-04-16T05:44:25.957Z,14.60
2023-04-16T05:46:54.180Z,11.20
2023-04-16T05:49:22.285Z,9.40
2023-04-16T05:51:51.080Z,9.10
2023-04-16T05:54:19.218Z,9.30
2023-04-16T05:56:47.114Z,10.00
2023-04-16T05:59:15.006Z,11.70
2023-04-16T06:01:42.980Z,9.30
2023-04-16T06:04:11.143Z,12.40
2023-04-16T06:06:40.297Z,11.10
2023-04-16T06:09:08.443Z,11.40
2023-04-16T06:11:36.673Z,10.30
2023-04-16T06:14:04.586Z,9.40
2023-04-16T06:16:32.592Z,13.00
2023-04-16T06:19:00.861Z,12.60
2023-04-16T06:21:29.215Z,12.50
2023-04-16T06:23:57.366Z,12.50
2023-04-16T06:26:25.887Z,9.30
2023-04-16T06:28:53.835Z,13.50
2023-04-16T06:31:21.962Z,11.10
2023-04-16T06:33:49.900Z,10.50
2023-04-16T06:36:18.151Z,9.90
2023-04-16T06:38:46.583Z,10.50
2023-04-16T06:41:14.919Z,10.60
2023-04-16T06:43:42.911Z,11.00
2023-04-16T06:46:11.315Z,12.00
2023-04-16T06:48:39.238Z,11.30
2023-04-16T06:51:07.352Z,9.50
2023-04-16T06:53:37.591Z,9.90
2023-04-16T06:56:06.187Z,10.30
2023-04-16T06:58:34.254Z,16.00
2023-04-16T07:01:02.863Z,10.10
2023-04-16T07:03:31.369Z,10.50
2023-04-16T07:05:59.576Z,11.40
2023-04-16T07:08:27.471Z,10.90
2023-04-16T07:10:55.421Z,8.70
2023-04-16T07:13:23.395Z,11.30
2023-04-16T07:15:51.474Z,11.60
2023-04-16T07:18:20.789Z,14.80
2023-04-16T07:20:48.888Z,9.00
2023-04-16T07:23:16.891Z,9.90
2023-04-16T07:25:44.760Z,9.90
2023-04-16T07:28:13.021Z,9.60
2023-04-16T07:30:40.992Z,16.90
2023-04-16T07:33:09.351Z,18.10
2023-04-16T07:35:37.656Z,14.30
2023-04-16T07:38:05.980Z,14.40
2023-04-16T07:40:33.974Z,14.40
2023-04-16T07:43:01.991Z,14.30
2023-04-16T07:45:29.944Z,16.30
2023-04-16T07:47:58.014Z,11.20
2023-04-16T07:50:26.196Z,11.30
2023-04-16T07:52:54.180Z,11.10
2023-04-16T07:55:22.166Z,12.30
2023-04-16T07:57:50.473Z,16.40
2023-04-16T08:00:18.420Z,10.30
2023-04-16T08:02:46.773Z,11.20
2023-04-16T08:05:14.896Z,11.90
2023-04-16T08:07:42.828Z,13.40
2023-04-16T08:10:11.177Z,11.70
2023-04-16T08:12:39.269Z,10.40
2023-04-16T08:15:08.072Z,12.00
2023-04-16T08:17:37.804Z,10.30
2023-04-16T08:20:06.962Z,9.20
2023-04-16T08:22:35.023Z,9.10
2023-04-16T08:25:04.434Z,9.30
2023-04-16T08:27:32.371Z,6.40
2023-04-16T08:30:00.411Z,5.60
2023-04-16T08:32:28.539Z,8.10
2023-04-16T08:34:57.289Z,5.00
2023-04-16T08:37:26.303Z,5.40
2023-04-16T08:39:54.186Z,5.50
2023-04-16T08:42:33.487Z,2.70
2023-04-16T08:45:13.638Z,4.30
2023-04-16T08:47:45.541Z,5.00
2023-04-16T08:50:18.446Z,2.70
2023-04-16T08:52:54.793Z,4.40
2023-04-16T08:55:26.705Z,4.00
2023-04-16T08:57:58.698Z,4.10
2023-04-16T09:00:26.988Z,3.80
2023-04-16T09:02:55.046Z,3.60
2023-04-16T09:05:25.801Z,2.70
2023-04-16T09:07:56.723Z,2.30
2023-04-16T09:10:27.366Z,4.30
2023-04-16T09:12:58.244Z,2.90
2023-04-16T09:15:26.562Z,2.40
2023-04-16T09:17:54.642Z,3.00
2023-04-16T09:20:22.865Z,3.40
2023-04-16T09:22:51.846Z,3.20
2023-04-16T09:25:22.153Z,3.10
2023-04-16T09:27:51.024Z,4.30
2023-04-16T09:30:21.965Z,2.30
2023-04-16T09:32:51.692Z,5.10
2023-04-16T09:35:20.804Z,2.30
2023-04-16T09:37:58.309Z,4.50
2023-04-16T09:40:30.521Z,4.30
2023-04-16T09:43:00.630Z,2.20
2023-04-16T09:45:32.076Z,3.60
2023-04-16T09:48:05.095Z,2.50
2023-04-16T09:50:33.148Z,1.70
2023-04-16T09:53:03.703Z,4.00
2023-04-16T09:55:32.828Z,2.40
2023-04-16T09:58:01.804Z,3.40
2023-04-16T10:00:31.663Z,3.00
2023-04-16T10:03:07.372Z,5.20
2023-04-16T10:05:35.722Z,3.30
2023-04-16T10:08:11.218Z,4.10
2023-04-16T10:10:40.089Z,5.00
2023-04-16T10:13:08.696Z,3.80
2023-04-16T10:15:36.989Z,2.60
2023-04-16T10:18:06.398Z,3.40
2023-04-16T10:20:35.325Z,2.60
2023-04-16T10:23:03.473Z,3.00
2023-04-16T10:25:32.657Z,3.30
2023-04-16T10:28:00.777Z,7.60
2023-04-16T10:30:29.223Z,5.50
2023-04-16T10:33:00.264Z,3.50
2023-04-16T10:35:28.670Z,3.90
2023-04-16T10:37:57.966Z,2.80
2023-04-16T10:40:27.426Z,2.80
2023-04-16T10:43:00.689Z,3.00
2023-04-16T10:45:33.059Z,3.40
2023-04-16T10:48:06.371Z,2.90
2023-04-16T10:50:36.491Z,4.50
2023-04-16T10:53:22.856Z,5.50
2023-04-16T10:56:03.238Z,3.50
2023-04-16T10:58:32.727Z,4.80
2023-04-16T11:01:01.957Z,3.00
2023-04-16T11:03:33.008Z,4.00
2023-04-16T11:06:23.898Z,3.80
2023-04-16T11:08:54.911Z,2.30
2023-04-16T11:11:23.711Z,2.20
2023-04-16T11:13:56.464Z,2.30
2023-04-16T11:16:26.028Z,3.90
2023-04-16T11:18:56.714Z,3.00
2023-04-16T11:21:25.407Z,3.10
2023-04-16T11:23:53.867Z,2.50
2023-04-16T11:26:29.261Z,2.90
2023-04-16T11:28:57.398Z,2.70
2023-04-16T11:31:27.389Z,2.40
2023-04-16T11:33:56.960Z,2.90
2023-04-16T11:36:27.470Z,3.30
2023-04-16T11:39:02.316Z,2.20
2023-04-16T11:41:30.391Z,4.00
2023-04-16T11:43:58.293Z,2.50
2023-04-16T11:46:39.450Z,1.90
2023-04-16T11:49:07.833Z,5.50
2023-04-16T11:51:43.987Z,1.80
2023-04-16T11:54:22.228Z,1.80
2023-04-16T11:56:51.746Z,2.90
2023-04-16T11:59:23.213Z,3.20
2023-04-16T12:01:53.290Z,3.10
2023-04-16T12:04:26.867Z,2.10
2023-04-16T12:07:14.657Z,1.20
2023-04-16T12:09:43.925Z,1.90
2023-04-16T12:12:30.822Z,2.50
2023-04-16T12:15:03.308Z,2.30
2023-04-16T12:17:35.957Z,1.80
2023-04-16T12:20:12.595Z,2.90
2023-04-16T12:22:44.638Z,2.30
2023-04-16T12:25:15.547Z,2.80
2023-04-16T12:27:55.738Z,1.70
2023-04-16T12:30:26.380Z,2.20
2023-04-16T12:33:15.457Z,1.50
2023-04-16T12:35:44.110Z,1.10
2023-04-16T12:38:12.587Z,1.20
2023-04-16T12:40:41.334Z,1.70
2023-04-16T12:43:11.930Z,2.50
2023-04-16T12:45:40.735Z,2.90
2023-04-16T12:48:08.810Z,1.60
2023-04-16T12:50:36.896Z,2.80
2023-04-16T12:53:04.925Z,1.90
2023-04-16T12:55:32.860Z,2.30
2023-04-16T12:58:01.068Z,2.20
2023-04-16T13:00:29.145Z,3.10
2023-04-16T13:02:57.286Z,2.30
2023-04-16T13:05:25.886Z,2.30
2023-04-16T13:07:54.205Z,2.80
2023-04-16T13:10:23.616Z,2.10
2023-04-16T13:12:51.605Z,4.60
2023-04-16T13:15:19.696Z,1.70
2023-04-16T13:17:47.690Z,1.90
2023-04-16T13:20:15.755Z,1.90
2023-04-16T13:22:43.757Z,22.50
2023-04-16T13:25:11.769Z,3.10
2023-04-16T13:27:39.664Z,2.60
2023-04-16T13:30:07.985Z,1.40
2023-04-16T13:32:36.023Z,3.20
2023-04-16T13:35:04.690Z,3.10
2023-04-16T13:37:32.755Z,2.50
2023-04-16T13:40:00.756Z,2.20
2023-04-16T13:42:28.872Z,2.80
2023-04-16T13:44:58.288Z,3.50
2023-04-16T13:47:26.315Z,2.80
2023-04-16T13:49:54.338Z,4.50
2023-04-16T13:52:22.302Z,2.50
2023-04-16T13:54:50.254Z,3.20
2023-04-16T13:57:21.120Z,2.80
2023-04-16T13:59:49.574Z,5.50
2023-04-16T14:02:17.683Z,4.30
2023-04-16T14:04:46.312Z,4.40
2023-04-16T14:07:14.696Z,3.30
2023-04-16T14:09:42.649Z,3.80
2023-04-16T14:12:10.612Z,5.00
2023-04-16T14:14:38.670Z,3.50
2023-04-16T14:17:07.593Z,3.60
2023-04-16T14:19:35.633Z,2.30
2023-04-16T14:22:03.615Z,3.60
2023-04-16T14:24:31.550Z,5.60
2023-04-16T14:26:59.589Z,2.30
2023-04-16T14:29:27.610Z,5.50
2023-04-16T14:31:55.588Z,5.50
2023-04-16T14:34:23.673Z,5.40
2023-04-16T14:36:52.101Z,5.20
2023-04-16T14:39:20.150Z,2.30
2023-04-16T14:41:48.148Z,2.20
2023-04-16T14:44:16.065Z,4.70
2023-04-16T14:46:44.712Z,3.30
2023-04-16T14:49:14.559Z,5.10
2023-04-16T14:51:45.251Z,3.20
2023-04-16T14:54:13.159Z,3.70
2023-04-16T14:56:41.694Z,3.30
2023-04-16T14:59:09.787Z,2.30
2023-04-16T15:01:41.823Z,3.60
2023-04-16T15:04:10.278Z,4.00
2023-04-16T15:06:38.526Z,5.00
2023-04-16T15:09:07.555Z,1.50
2023-04-16T15:11:35.644Z,3.40
2023-04-16T15:14:03.645Z,6.90
2023-04-16T15:16:31.713Z,5.80
2023-04-16T15:18:59.796Z,5.10
2023-04-16T15:21:28.153Z,2.20
2023-04-16T15:23:56.202Z,5.50
2023-04-16T15:26:24.210Z,2.10
2023-04-16T15:28:52.225Z,2.30
2023-04-16T15:31:21.122Z,2.00
2023-04-16T15:33:49.552Z,3.30
2023-04-16T15:36:17.481Z,1.00
2023-04-16T15:38:45.550Z,1.90
2023-04-16T15:41:13.914Z,1.80
2023-04-16T15:43:41.963Z,1.40
2023-04-16T15:46:10.646Z,2.10
2023-04-16T15:48:38.635Z,2.60
2023-04-16T15:51:06.638Z,2.50
2023-04-16T15:53:34.863Z,4.50
2023-04-16T15:56:02.793Z,8.00
2023-04-16T15:58:30.842Z,3.40
2023-04-16T16:00:58.874Z,2.10
2023-04-16T16:03:27.576Z,3.10
2023-04-16T16:05:58.201Z,2.70
2023-04-16T16:08:27.457Z,4.10
2023-04-16T16:10:55.409Z,2.60
2023-04-16T16:13:23.454Z,3.80
2023-04-16T16:15:51.969Z,3.10
2023-04-16T16:18:22.139Z,2.70
2023-04-16T16:20:51.948Z,2.30
2023-04-16T16:23:19.835Z,3.90
2023-04-16T16:25:47.780Z,5.60
2023-04-16T16:28:15.791Z,4.60
2023-04-16T16:30:44.879Z,3.90
2023-04-16T16:33:14.172Z,4.00
2023-04-16T16:35:42.775Z,4.70
2023-04-16T16:38:10.755Z,3.20
2023-04-16T16:40:39.764Z,3.70
2023-04-16T16:43:08.037Z,3.20
2023-04-16T16:45:36.298Z,5.50
2023-04-16T16:48:04.693Z,3.50
2023-04-16T16:50:33.338Z,2.40
2023-04-16T16:53:01.325Z,4.10
2023-04-16T16:55:29.177Z,2.10
2023-04-16T16:57:57.226Z,4.60
2023-04-16T17:00:25.569Z,5.80
2023-04-16T17:02:53.707Z,3.10
2023-04-16T17:05:21.960Z,3.80
2023-04-16T17:07:49.972Z,5.80
2023-04-16T17:10:21.126Z,5.50
2023-04-16T17:12:51.181Z,5.30
2023-04-16T17:15:21.653Z,6.80
2023-04-16T17:17:50.219Z,4.30
2023-04-16T17:20:18.449Z,3.80
2023-04-16T17:22:46.333Z,6.00
2023-04-16T17:25:14.706Z,6.80
2023-04-16T17:27:42.646Z,5.80
2023-04-16T17:30:10.928Z,3.50
2023-04-16T17:32:38.974Z,4.10
2023-04-16T17:35:08.935Z,2.70
2023-04-16T17:37:36.824Z,2.40
2023-04-16T17:40:07.536Z,3.80
2023-04-16T17:42:36.309Z,2.10
2023-04-16T17:45:07.204Z,2.80
2023-04-16T17:47:36.540Z,4.10
2023-04-16T17:50:05.085Z,3.40
2023-04-16T17:52:33.215Z,2.70
2023-04-16T17:55:01.767Z,2.70
2023-04-16T17:57:31.067Z,2.20
2023-04-16T17:59:59.037Z,2.00
2023-04-16T18:02:27.147Z,12.30
2023-04-16T18:04:55.628Z,2.40
2023-04-16T18:07:23.831Z,1.90
2023-04-16T18:09:54.070Z,2.20
2023-04-16T18:12:22.126Z,1.70
2023-04-16T18:14:50.022Z,1.60
2023-04-16T18:17:18.053Z,4.60
2023-04-16T18:19:46.029Z,4.10
2023-04-16T18:22:14.063Z,2.20
2023-04-16T18:24:42.207Z,2.20
2023-04-16T18:27:10.124Z,3.50
2023-04-16T18:29:39.877Z,2.50
2023-04-16T18:32:11.671Z,4.40
2023-04-16T18:34:40.270Z,3.80
2023-04-16T18:37:08.546Z,3.00
2023-04-16T18:39:37.273Z,2.70
2023-04-16T18:42:05.329Z,2.90
2023-04-16T18:44:34.295Z,2.90
2023-04-16T18:47:02.361Z,3.90
2023-04-16T18:49:30.485Z,2.50
2023-04-16T18:51:58.498Z,2.50
2023-04-16T18:54:28.201Z,7.00
2023-04-16T18:56:57.763Z,2.00
2023-04-16T18:59:27.236Z,2.10
2023-04-16T19:01:55.428Z,3.00
2023-04-16T19:04:23.639Z,1.40
2023-04-16T19:06:51.670Z,3.50
2023-04-16T19:09:20.166Z,1.70
2023-04-16T19:11:50.714Z,2.00
2023-04-16T19:14:20.106Z,1.70
2023-04-16T19:16:48.065Z,2.10
2023-04-16T19:19:17.568Z,2.30
2023-04-16T19:21:45.453Z,2.90
2023-04-16T19:24:13.553Z,1.80
2023-04-16T19:26:41.670Z,2.10
2023-04-16T19:29:09.705Z,3.20
2023-04-16T19:31:37.850Z,1.40
2023-04-16T19:34:05.815Z,1.80
2023-04-16T19:36:33.957Z,1.60
2023-04-16T19:39:01.959Z,1.50
2023-04-16T19:41:29.883Z,1.70
2023-04-16T19:43:57.798Z,1.80
2023-04-16T19:46:25.967Z,2.30
2023-04-16T19:48:53.989Z,1.30
2023-04-16T19:51:21.969Z,2.00
2023-04-16T19:53:49.951Z,2.10
2023-04-16T19:56:17.993Z,2.50
2023-04-16T19:58:46.131Z,3.10
2023-04-16T20:01:14.294Z,2.70
2023-04-16T20:03:42.382Z,3.00
2023-04-16T20:06:10.548Z,2.20
2023-04-16T20:08:38.612Z,2.60
2023-04-16T20:11:08.662Z,3.60
2023-04-16T20:13:37.726Z,3.20
2023-04-16T20:16:05.903Z,3.70
2023-04-16T20:18:41.468Z,3.00
2023-04-16T20:21:10.105Z,3.60
2023-04-16T20:23:38.015Z,2.60
2023-04-16T20:26:06.254Z,2.90
2023-04-16T20:28:34.135Z,3.70
2023-04-16T20:31:02.128Z,3.60
2023-04-16T20:33:30.055Z,6.00
2023-04-16T20:35:58.010Z,4.20
2023-04-16T20:38:26.047Z,3.80
2023-04-16T20:41:12.508Z,5.50
2023-04-16T20:43:42.028Z,3.70
2023-04-16T20:46:11.896Z,3.90
2023-04-16T20:48:40.051Z,3.90
2023-04-16T20:51:09.733Z,3.70
2023-04-16T20:53:38.385Z,4.10
2023-04-16T20:56:08.384Z,4.50
2023-04-16T20:58:36.314Z,3.10
2023-04-16T21:01:06.032Z,3.20
2023-04-16T21:03:34.117Z,3.20
2023-04-16T21:06:02.300Z,4.50
2023-04-16T21:08:30.430Z,2.50
2023-04-16T21:10:58.381Z,2.70
2023-04-16T21:13:26.523Z,2.10
2023-04-16T21:15:54.509Z,4.90
2023-04-16T21:18:22.467Z,6.50
2023-04-16T21:20:50.454Z,2.00
2023-04-16T21:23:18.432Z,7.90
2023-04-16T21:25:46.418Z,2.00
2023-04-16T21:28:14.272Z,1.90
2023-04-16T21:30:42.859Z,1.90
2023-04-16T21:33:12.957Z,2.10
2023-04-16T21:35:40.922Z,2.20
2023-04-16T21:38:08.913Z,1.70
2023-04-16T21:40:36.826Z,1.90
2023-04-16T21:43:04.706Z,2.40
2023-04-16T21:45:32.731Z,2.30
2023-04-16T21:48:00.914Z,1.70
2023-04-16T21:50:29.104Z,2.20
2023-04-16T21:52:57.230Z,2.60
2023-04-16T21:55:25.779Z,2.20
2023-04-16T21:57:53.626Z,1.70
2023-04-16T22:00:21.672Z,1.80
2023-04-16T22:02:49.772Z,1.90
2023-04-16T22:05:18.001Z,2.70
2023-04-16T22:07:46.012Z,1.70
2023-04-16T22:10:15.164Z,2.70
2023-04-16T22:12:47.336Z,2.40
2023-04-16T22:15:15.572Z,2.20
2023-04-16T22:17:43.991Z,2.30
2023-04-16T22:20:13.422Z,2.80
2023-04-16T22:22:42.372Z,2.90
2023-04-16T22:25:11.541Z,2.70
2023-04-16T22:27:39.761Z,2.60
2023-04-16T22:30:08.466Z,3.50
2023-04-16T22:32:36.706Z,3.80
2023-04-16T22:35:05.233Z,2.80
2023-04-16T22:37:33.612Z,3.30
2023-04-16T22:40:01.579Z,2.70
2023-04-16T22:42:29.579Z,2.60
2023-04-16T22:44:57.580Z,2.60
2023-04-16T22:47:25.594Z,3.00
2023-04-16T22:49:53.960Z,2.90
2023-04-16T22:52:21.936Z,2.60
2023-04-16T22:54:49.956Z,3.00
2023-04-16T22:57:21.210Z,5.20
2023-04-16T22:59:49.197Z,2.20
2023-04-16T23:02:17.582Z,2.90
2023-04-16T23:04:46.509Z,2.60
2023-04-16T23:07:15.157Z,2.70
2023-04-16T23:09:43.098Z,2.30
2023-04-16T23:12:11.089Z,2.50
2023-04-16T23:14:39.082Z,2.60
2023-04-16T23:17:07.115Z,2.80
2023-04-16T23:19:35.013Z,2.50
2023-04-16T23:22:03.455Z,3.50
2023-04-16T23:24:31.405Z,2.40
2023-04-16T23:26:59.390Z,3.40
2023-04-16T23:29:27.347Z,2.70
2023-04-16T23:31:55.253Z,2.60
2023-04-16T23:34:23.165Z,2.30
2023-04-16T23:36:51.557Z,2.70
2023-04-16T23:39:19.547Z,2.40
2023-04-16T23:41:47.499Z,2.10
2023-04-16T23:44:16.509Z,3.30
2023-04-16T23:46:44.504Z,2.90
2023-04-16T23:49:12.764Z,3.50
2023-04-16T23:51:41.352Z,2.50
2023-04-16T23:54:09.337Z,2.50
2023-04-16T23:56:37.373Z,3.00
2023-04-16T23:59:05.694Z,2.60
